Gyumri, Armenia
Current Conditions -  °F | °C
As of 9:00 AM on Sunday 21 Dec 2014 (Local Time) from UDSG Reporting Station
Clear Clear  
Wind Chill:   Ceiling: Unl
Heat Index: 16°   Visibility: 4mi
Dew Point: 14°   Wind: 4mph
Humidity: 93%   Direction: 100°E
Pressure: 30.09"   Gusts: NA
Location:  40.78°N, 43.83°E
Report Text: UDSG 210400Z 10002MPS 7000 NSC M09/M10 Q1019 R02/CLRD70 NOSIG
Loading
Personal Weather Stations






























Interactive Weather Map New forecast layout! Learn more

10-Day Weather Forecast

Advertisements
Track Severe Weather on mobile